sensor_id;sensor_type;location;lat;lon;timestamp;pressure;altitude;pressure_sealevel;temperature;humidity
23261;BME280;11799;47.740;-3.390;2022-11-20T00:01:21;101270.38;;;10.32;81.86
23261;BME280;11799;47.740;-3.390;2022-11-20T00:03:47;101280.94;;;10.32;82.32
23261;BME280;11799;47.740;-3.390;2022-11-20T00:06:15;101275.88;;;10.29;82.84
23261;BME280;11799;47.740;-3.390;2022-11-20T00:08:41;101265.31;;;10.29;82.93
23261;BME280;11799;47.740;-3.390;2022-11-20T00:11:21;101276.81;;;10.28;83.37
23261;BME280;11799;47.740;-3.390;2022-11-20T00:13:49;101275.13;;;10.27;83.93
23261;BME280;11799;47.740;-3.390;2022-11-20T00:16:18;101270.78;;;10.26;84.47
23261;BME280;11799;47.740;-3.390;2022-11-20T00:18:44;101276.06;;;10.26;84.90
23261;BME280;11799;47.740;-3.390;2022-11-20T00:21:12;101272.59;;;10.25;85.09
23261;BME280;11799;47.740;-3.390;2022-11-20T00:23:38;101264.88;;;10.22;84.94
23261;BME280;11799;47.740;-3.390;2022-11-20T00:26:09;101260.56;;;10.21;85.85
23261;BME280;11799;47.740;-3.390;2022-11-20T00:28:35;101255.28;;;10.21;86.43
23261;BME280;11799;47.740;-3.390;2022-11-20T00:31:21;101249.25;;;10.19;86.78
23261;BME280;11799;47.740;-3.390;2022-11-20T00:33:47;101250.19;;;10.18;86.77
23261;BME280;11799;47.740;-3.390;2022-11-20T00:36:18;101247.63;;;10.17;87.18
23261;BME280;11799;47.740;-3.390;2022-11-20T00:38:44;101245.84;;;10.17;87.13
23261;BME280;11799;47.740;-3.390;2022-11-20T00:41:12;101241.72;;;10.13;87.32
23261;BME280;11799;47.740;-3.390;2022-11-20T00:43:38;101228.53;;;10.13;87.52
23261;BME280;11799;47.740;-3.390;2022-11-20T00:46:06;101228.53;;;10.13;87.36
23261;BME280;11799;47.740;-3.390;2022-11-20T00:48:32;101230.31;;;10.13;87.76
23261;BME280;11799;47.740;-3.390;2022-11-20T00:50:58;101229.47;;;10.12;87.59
23261;BME280;11799;47.740;-3.390;2022-11-20T00:53:23;101226.94;;;10.11;88.67
23261;BME280;11799;47.740;-3.390;2022-11-20T00:55:59;101224.19;;;10.12;88.11
23261;BME280;11799;47.740;-3.390;2022-11-20T00:58:38;101221.56;;;10.12;88.67
23261;BME280;11799;47.740;-3.390;2022-11-20T01:01:13;101213.66;;;10.12;89.13
23261;BME280;11799;47.740;-3.390;2022-11-20T01:03:44;101204.88;;;10.12;89.00
23261;BME280;11799;47.740;-3.390;2022-11-20T01:06:13;101204.78;;;10.13;89.31
23261;BME280;11799;47.740;-3.390;2022-11-20T01:08:39;101204.78;;;10.13;89.47
23261;BME280;11799;47.740;-3.390;2022-11-20T01:11:10;101199.50;;;10.13;89.33
23261;BME280;11799;47.740;-3.390;2022-11-20T01:13:36;101194.97;;;10.15;89.49
23261;BME280;11799;47.740;-3.390;2022-11-20T01:16:07;101183.66;;;10.13;90.26
23261;BME280;11799;47.740;-3.390;2022-11-20T01:18:32;101181.66;;;10.17;90.71
23261;BME280;11799;47.740;-3.390;2022-11-20T01:21:03;101184.19;;;10.18;90.19
23261;BME280;11799;47.740;-3.390;2022-11-20T01:23:31;101181.47;;;10.20;90.35
23261;BME280;11799;47.740;-3.390;2022-11-20T01:25:59;101168.28;;;10.20;90.38
23261;BME280;11799;47.740;-3.390;2022-11-20T01:28:25;101170.69;;;10.23;91.07
23261;BME280;11799;47.740;-3.390;2022-11-20T01:30:50;101160.16;;;10.23;91.10
23261;BME280;11799;47.740;-3.390;2022-11-20T01:33:16;101154.75;;;10.24;91.29
23261;BME280;11799;47.740;-3.390;2022-11-20T01:35:41;101144.19;;;10.24;90.85
23261;BME280;11799;47.740;-3.390;2022-11-20T01:38:07;101148.53;;;10.25;91.12
23261;BME280;11799;47.740;-3.390;2022-11-20T01:40:32;101139.66;;;10.27;91.40
23261;BME280;11799;47.740;-3.390;2022-11-20T01:43:09;101130.78;;;10.28;91.50
23261;BME280;11799;47.740;-3.390;2022-11-20T01:48:13;101129.50;;;10.33;91.84
23261;BME280;11799;47.740;-3.390;2022-11-20T01:50:40;101124.13;;;10.35;91.82
23261;BME280;11799;47.740;-3.390;2022-11-20T01:53:09;101113.34;;;10.38;91.78
23261;BME280;11799;47.740;-3.390;2022-11-20T01:55:41;101101.81;;;10.39;91.86
23261;BME280;11799;47.740;-3.390;2022-11-20T01:58:08;101091.00;;;10.42;92.13
23261;BME280;11799;47.740;-3.390;2022-11-20T02:00:34;101100.63;;;10.43;92.00
23261;BME280;11799;47.740;-3.390;2022-11-20T02:03:07;101089.94;;;10.44;92.34
23261;BME280;11799;47.740;-3.390;2022-11-20T02:05:57;101088.78;;;10.48;92.24
23261;BME280;11799;47.740;-3.390;2022-11-20T02:08:27;101075.56;;;10.48;92.47
23261;BME280;11799;47.740;-3.390;2022-11-20T02:10:53;101076.28;;;10.50;92.68
23261;BME280;11799;47.740;-3.390;2022-11-20T02:13:19;101069.94;;;10.53;92.72
23261;BME280;11799;47.740;-3.390;2022-11-20T02:16:03;101062.88;;;10.53;92.34
23261;BME280;11799;47.740;-3.390;2022-11-20T02:18:29;101066.25;;;10.55;92.68
23261;BME280;11799;47.740;-3.390;2022-11-20T02:21:40;101056.28;;;10.59;92.59
23261;BME280;11799;47.740;-3.390;2022-11-20T02:24:15;101057.03;;;10.61;93.17
23261;BME280;11799;47.740;-3.390;2022-11-20T02:26:47;101051.50;;;10.64;93.09
23261;BME280;11799;47.740;-3.390;2022-11-20T02:30:07;101052.25;;;10.66;93.37
23261;BME280;11799;47.740;-3.390;2022-11-20T02:32:38;101041.22;;;10.72;93.21
23261;BME280;11799;47.740;-3.390;2022-11-20T02:35:08;101038.34;;;10.75;93.32
23261;BME280;11799;47.740;-3.390;2022-11-20T02:37:37;101040.88;;;10.77;94.05
23261;BME280;11799;47.740;-3.390;2022-11-20T02:40:04;101031.03;;;10.79;93.69
23261;BME280;11799;47.740;-3.390;2022-11-20T02:42:30;101024.56;;;10.83;93.49
23261;BME280;11799;47.740;-3.390;2022-11-20T02:44:55;101018.22;;;10.85;93.41
23261;BME280;11799;47.740;-3.390;2022-11-20T02:47:21;101005.63;;;10.89;93.57
23261;BME280;11799;47.740;-3.390;2022-11-20T02:49:46;101005.50;;;10.90;94.21
23261;BME280;11799;47.740;-3.390;2022-11-20T02:52:12;101002.75;;;10.92;94.10
23261;BME280;11799;47.740;-3.390;2022-11-20T02:54:37;100987.63;;;10.94;93.70
23261;BME280;11799;47.740;-3.390;2022-11-20T02:57:03;100989.03;;;10.98;94.10
23261;BME280;11799;47.740;-3.390;2022-11-20T02:59:28;100976.44;;;11.02;94.88
23261;BME280;11799;47.740;-3.390;2022-11-20T03:01:54;100982.19;;;11.07;94.39
23261;BME280;11799;47.740;-3.390;2022-11-20T03:04:19;100972.34;;;11.09;94.53
23261;BME280;11799;47.740;-3.390;2022-11-20T03:06:45;100958.06;;;11.11;94.26
23261;BME280;11799;47.740;-3.390;2022-11-20T03:09:11;100949.16;;;11.12;94.88
23261;BME280;11799;47.740;-3.390;2022-11-20T03:11:36;100948.22;;;11.13;95.10
23261;BME280;11799;47.740;-3.390;2022-11-20T03:14:04;100948.94;;;11.15;95.13
23261;BME280;11799;47.740;-3.390;2022-11-20T03:16:30;100940.63;;;11.20;94.73
23261;BME280;11799;47.740;-3.390;2022-11-20T03:18:56;100935.22;;;11.21;95.12
23261;BME280;11799;47.740;-3.390;2022-11-20T03:21:22;100929.00;;;11.22;94.77
23261;BME280;11799;47.740;-3.390;2022-11-20T03:23:47;100930.19;;;11.30;95.14
23261;BME280;11799;47.740;-3.390;2022-11-20T03:26:19;100924.66;;;11.33;95.59
23261;BME280;11799;47.740;-3.390;2022-11-20T03:29:04;100918.16;;;11.37;95.39
23261;BME280;11799;47.740;-3.390;2022-11-20T03:31:35;100902.19;;;11.38;96.15
23261;BME280;11799;47.740;-3.390;2022-11-20T03:34:01;100902.06;;;11.40;95.53
23261;BME280;11799;47.740;-3.390;2022-11-20T03:36:27;100894.97;;;11.40;95.65
23261;BME280;11799;47.740;-3.390;2022-11-20T03:38:54;100892.91;;;11.44;96.29
23261;BME280;11799;47.740;-3.390;2022-11-20T03:41:25;100885.81;;;11.44;96.25
23261;BME280;11799;47.740;-3.390;2022-11-20T03:46:21;100902.91;;;11.40;95.54
23261;BME280;11799;47.740;-3.390;2022-11-20T03:48:47;100911.19;;;11.36;95.60
23261;BME280;11799;47.740;-3.390;2022-11-20T03:51:17;100925.50;;;11.33;94.70
23261;BME280;11799;47.740;-3.390;2022-11-20T03:53:45;100927.53;;;11.30;94.45
23261;BME280;11799;47.740;-3.390;2022-11-20T03:56:12;100925.03;;;11.28;94.36
23261;BME280;11799;47.740;-3.390;2022-11-20T03:58:39;100930.66;;;11.23;94.42
23261;BME280;11799;47.740;-3.390;2022-11-20T04:01:17;100951.94;;;11.22;94.43
23261;BME280;11799;47.740;-3.390;2022-11-20T04:03:43;100958.31;;;11.19;94.19
23261;BME280;11799;47.740;-3.390;2022-11-20T04:06:10;100960.34;;;11.16;93.39
23261;BME280;11799;47.740;-3.390;2022-11-20T04:08:37;100960.59;;;11.13;93.71
23261;BME280;11799;47.740;-3.390;2022-11-20T04:11:23;100969.72;;;11.09;93.55
23261;BME280;11799;47.740;-3.390;2022-11-20T04:13:51;100967.19;;;11.07;92.50
23261;BME280;11799;47.740;-3.390;2022-11-20T04:16:17;100973.53;;;11.05;93.27
23261;BME280;11799;47.740;-3.390;2022-11-20T04:18:43;100970.41;;;11.00;93.22
23261;BME280;11799;47.740;-3.390;2022-11-20T04:21:10;100981.25;;;10.97;93.09
23261;BME280;11799;47.740;-3.390;2022-11-20T04:23:36;100979.91;;;10.91;92.55
23261;BME280;11799;47.740;-3.390;2022-11-20T04:26:10;100980.16;;;10.88;92.39
23261;BME280;11799;47.740;-3.390;2022-11-20T04:28:36;100979.44;;;10.86;92.39
23261;BME280;11799;47.740;-3.390;2022-11-20T04:31:26;100985.91;;;10.82;92.06
23261;BME280;11799;47.740;-3.390;2022-11-20T04:33:52;100986.25;;;10.77;92.75
23261;BME280;11799;47.740;-3.390;2022-11-20T04:36:20;100986.47;;;10.74;92.14
23261;BME280;11799;47.740;-3.390;2022-11-20T04:38:49;101012.28;;;10.71;92.36
23261;BME280;11799;47.740;-3.390;2022-11-20T04:41:18;101012.41;;;10.69;92.16
23261;BME280;11799;47.740;-3.390;2022-11-20T04:43:51;101009.03;;;10.67;92.45
23261;BME280;11799;47.740;-3.390;2022-11-20T04:46:19;101006.22;;;10.57;91.84
23261;BME280;11799;47.740;-3.390;2022-11-20T04:48:45;101014.28;;;10.56;92.26
23261;BME280;11799;47.740;-3.390;2022-11-20T04:51:11;101009.22;;;10.53;91.98
23261;BME280;11799;47.740;-3.390;2022-11-20T04:53:36;101009.31;;;10.51;91.95
23261;BME280;11799;47.740;-3.390;2022-11-20T04:56:07;101005.34;;;10.46;92.01
23261;BME280;11799;47.740;-3.390;2022-11-20T04:58:33;101003.78;;;10.43;92.00
23261;BME280;11799;47.740;-3.390;2022-11-20T05:01:04;101007.38;;;10.42;91.91
23261;BME280;11799;47.740;-3.390;2022-11-20T05:03:30;101013.84;;;10.38;91.42
23261;BME280;11799;47.740;-3.390;2022-11-20T05:06:00;101011.44;;;10.35;91.59
23261;BME280;11799;47.740;-3.390;2022-11-20T05:08:25;101021.38;;;10.32;91.22
23261;BME280;11799;47.740;-3.390;2022-11-20T05:10:51;101028.81;;;10.27;91.54
23261;BME280;11799;47.740;-3.390;2022-11-20T05:13:16;101033.56;;;10.21;91.37
23261;BME280;11799;47.740;-3.390;2022-11-20T05:15:42;101045.91;;;10.21;90.97
23261;BME280;11799;47.740;-3.390;2022-11-20T05:18:07;101051.50;;;10.16;90.63
23261;BME280;11799;47.740;-3.390;2022-11-20T05:20:33;101053.63;;;10.11;90.68
23261;BME280;11799;47.740;-3.390;2022-11-20T05:22:58;101074.63;;;10.13;90.82
23261;BME280;11799;47.740;-3.390;2022-11-20T05:25:24;101081.91;;;10.09;90.87
23261;BME280;11799;47.740;-3.390;2022-11-20T05:27:50;101080.34;;;10.07;91.11
23261;BME280;11799;47.740;-3.390;2022-11-20T05:30:16;101091.84;;;10.06;90.95
23261;BME280;11799;47.740;-3.390;2022-11-20T05:32:41;101088.69;;;10.01;90.76
23261;BME280;11799;47.740;-3.390;2022-11-20T05:35:07;101098.50;;;9.99;90.88
23261;BME280;11799;47.740;-3.390;2022-11-20T05:37:32;101112.44;;;10.01;90.92
23261;BME280;11799;47.740;-3.390;2022-11-20T05:39:58;101108.94;;;10.00;91.18
23261;BME280;11799;47.740;-3.390;2022-11-20T05:42:24;101110.66;;;10.01;91.50
23261;BME280;11799;47.740;-3.390;2022-11-20T05:44:59;101122.16;;;10.00;91.46
23261;BME280;11799;47.740;-3.390;2022-11-20T05:47:25;101136.91;;;10.03;91.72
23261;BME280;11799;47.740;-3.390;2022-11-20T05:49:51;101147.38;;;10.04;91.63
23261;BME280;11799;47.740;-3.390;2022-11-20T05:52:17;101137.66;;;10.05;91.55
23261;BME280;11799;47.740;-3.390;2022-11-20T05:54:42;101133.31;;;10.04;91.21
23261;BME280;11799;47.740;-3.390;2022-11-20T05:57:08;101136.06;;;10.02;91.23
23261;BME280;11799;47.740;-3.390;2022-11-20T05:59:33;101131.84;;;10.00;91.17
23261;BME280;11799;47.740;-3.390;2022-11-20T06:01:59;101143.38;;;9.99;90.73
23261;BME280;11799;47.740;-3.390;2022-11-20T06:04:25;101145.25;;;9.97;91.26
23261;BME280;11799;47.740;-3.390;2022-11-20T06:06:50;101148.97;;;9.94;91.01
23261;BME280;11799;47.740;-3.390;2022-11-20T06:09:16;101157.09;;;9.91;90.61
23261;BME280;11799;47.740;-3.390;2022-11-20T06:11:41;101160.78;;;9.88;91.04
23261;BME280;11799;47.740;-3.390;2022-11-20T06:14:07;101167.84;;;9.88;90.30
23261;BME280;11799;47.740;-3.390;2022-11-20T06:16:32;101167.13;;;9.86;90.37
23261;BME280;11799;47.740;-3.390;2022-11-20T06:18:58;101167.97;;;9.86;90.40
23261;BME280;11799;47.740;-3.390;2022-11-20T06:21:24;101162.69;;;9.86;90.46
23261;BME280;11799;47.740;-3.390;2022-11-20T06:23:50;101167.13;;;9.86;90.63
23261;BME280;11799;47.740;-3.390;2022-11-20T06:26:23;101170.69;;;9.85;90.38
23261;BME280;11799;47.740;-3.390;2022-11-20T06:28:49;101171.53;;;9.85;90.47
23261;BME280;11799;47.740;-3.390;2022-11-20T06:31:17;101168.06;;;9.85;90.82
23261;BME280;11799;47.740;-3.390;2022-11-20T06:33:44;101171.53;;;9.85;90.36
23261;BME280;11799;47.740;-3.390;2022-11-20T06:36:11;101163.03;;;9.82;89.99
23261;BME280;11799;47.740;-3.390;2022-11-20T06:38:38;101159.31;;;9.84;89.98
23261;BME280;11799;47.740;-3.390;2022-11-20T06:41:05;101157.50;;;9.85;90.09
23261;BME280;11799;47.740;-3.390;2022-11-20T06:43:30;101158.34;;;9.85;89.80
23261;BME280;11799;47.740;-3.390;2022-11-20T06:45:57;101162.03;;;9.83;90.06
23261;BME280;11799;47.740;-3.390;2022-11-20T06:48:24;101160.72;;;9.77;89.70
23261;BME280;11799;47.740;-3.390;2022-11-20T06:50:50;101163.44;;;9.76;89.91
23261;BME280;11799;47.740;-3.390;2022-11-20T06:53:16;101188.88;;;9.77;89.68
23261;BME280;11799;47.740;-3.390;2022-11-20T06:55:43;101181.28;;;9.72;89.71
23261;BME280;11799;47.740;-3.390;2022-11-20T06:58:09;101191.94;;;9.71;89.45
23261;BME280;11799;47.740;-3.390;2022-11-20T07:00:35;101187.72;;;9.68;89.72
23261;BME280;11799;47.740;-3.390;2022-11-20T07:03:08;101200.03;;;9.68;89.42
23261;BME280;11799;47.740;-3.390;2022-11-20T07:05:34;101198.56;;;9.64;89.57
23261;BME280;11799;47.740;-3.390;2022-11-20T07:08:01;101201.41;;;9.60;89.21
23261;BME280;11799;47.740;-3.390;2022-11-20T07:10:26;101203.09;;;9.62;89.24
23261;BME280;11799;47.740;-3.390;2022-11-20T07:12:53;101195.59;;;9.55;89.50
23261;BME280;11799;47.740;-3.390;2022-11-20T07:15:19;101205.19;;;9.56;88.90
23261;BME280;11799;47.740;-3.390;2022-11-20T07:17:45;101215.75;;;9.56;89.20
23261;BME280;11799;47.740;-3.390;2022-11-20T07:20:12;101211.53;;;9.54;88.95
23261;BME280;11799;47.740;-3.390;2022-11-20T07:22:38;101213.41;;;9.52;89.09
23261;BME280;11799;47.740;-3.390;2022-11-20T07:25:03;101209.28;;;9.48;88.90
23261;BME280;11799;47.740;-3.390;2022-11-20T07:27:30;101221.53;;;9.49;88.66
23261;BME280;11799;47.740;-3.390;2022-11-20T07:29:55;101225.13;;;9.48;88.57
23261;BME280;11799;47.740;-3.390;2022-11-20T07:32:22;101225.22;;;9.46;88.50
23261;BME280;11799;47.740;-3.390;2022-11-20T07:34:47;101237.56;;;9.46;88.51
23261;BME280;11799;47.740;-3.390;2022-11-20T07:37:14;101238.69;;;9.42;88.54
23261;BME280;11799;47.740;-3.390;2022-11-20T07:39:39;101231.53;;;9.44;88.69
23261;BME280;11799;47.740;-3.390;2022-11-20T07:42:08;101237.94;;;9.40;88.46
23261;BME280;11799;47.740;-3.390;2022-11-20T07:44:36;101247.94;;;9.35;88.06
23261;BME280;11799;47.740;-3.390;2022-11-20T07:47:01;101246.38;;;9.32;87.76
23261;BME280;11799;47.740;-3.390;2022-11-20T07:49:27;101244.13;;;9.26;87.82
23261;BME280;11799;47.740;-3.390;2022-11-20T07:51:53;101248.78;;;9.22;87.89
23261;BME280;11799;47.740;-3.390;2022-11-20T07:54:21;101253.31;;;9.20;87.81
23261;BME280;11799;47.740;-3.390;2022-11-20T07:56:48;101255.84;;;9.22;87.78
23261;BME280;11799;47.740;-3.390;2022-11-20T07:59:14;101263.00;;;9.20;87.56
23261;BME280;11799;47.740;-3.390;2022-11-20T08:01:41;101262.25;;;9.18;87.76
23261;BME280;11799;47.740;-3.390;2022-11-20T08:04:08;101263.00;;;9.20;87.49
23261;BME280;11799;47.740;-3.390;2022-11-20T08:06:34;101269.13;;;9.20;87.72
23261;BME280;11799;47.740;-3.390;2022-11-20T08:08:59;101277.31;;;9.16;87.61
23261;BME280;11799;47.740;-3.390;2022-11-20T08:11:25;101276.28;;;9.18;87.74
23261;BME280;11799;47.740;-3.390;2022-11-20T08:14:09;101279.75;;;9.19;87.70
23261;BME280;11799;47.740;-3.390;2022-11-20T08:16:48;101292.00;;;9.20;88.13
23261;BME280;11799;47.740;-3.390;2022-11-20T08:19:16;101306.66;;;9.24;88.16
23261;BME280;11799;47.740;-3.390;2022-11-20T08:21:42;101306.53;;;9.25;88.01
23261;BME280;11799;47.740;-3.390;2022-11-20T08:24:08;101321.31;;;9.28;87.92
23261;BME280;11799;47.740;-3.390;2022-11-20T08:26:34;101328.38;;;9.27;87.75
23261;BME280;11799;47.740;-3.390;2022-11-20T08:29:00;101328.28;;;9.29;87.54
23261;BME280;11799;47.740;-3.390;2022-11-20T08:31:27;101331.84;;;9.28;86.68
23261;BME280;11799;47.740;-3.390;2022-11-20T08:33:53;101345.03;;;9.28;85.78
23261;BME280;11799;47.740;-3.390;2022-11-20T08:36:20;101351.78;;;9.32;86.49
23261;BME280;11799;47.740;-3.390;2022-11-20T08:38:50;101350.84;;;9.33;86.82
23261;BME280;11799;47.740;-3.390;2022-11-20T08:41:16;101347.06;;;9.37;86.63
23261;BME280;11799;47.740;-3.390;2022-11-20T08:44:03;101362.78;;;9.39;86.43
23261;BME280;11799;47.740;-3.390;2022-11-20T08:46:40;101363.25;;;9.45;86.87
23261;BME280;11799;47.740;-3.390;2022-11-20T08:49:10;101378.47;;;9.54;87.55
23261;BME280;11799;47.740;-3.390;2022-11-20T08:51:36;101382.72;;;9.57;87.23
23261;BME280;11799;47.740;-3.390;2022-11-20T08:54:03;101391.06;;;9.64;87.27
23261;BME280;11799;47.740;-3.390;2022-11-20T08:56:30;101394.91;;;9.72;87.49
23261;BME280;11799;47.740;-3.390;2022-11-20T08:58:56;101392.91;;;9.76;87.15
23261;BME280;11799;47.740;-3.390;2022-11-20T09:01:22;101398.84;;;9.79;87.41
23261;BME280;11799;47.740;-3.390;2022-11-20T09:03:49;101404.09;;;9.79;86.15
23261;BME280;11799;47.740;-3.390;2022-11-20T09:06:15;101404.63;;;9.84;86.76
23261;BME280;11799;47.740;-3.390;2022-11-20T09:08:41;101400.94;;;9.87;86.48
23261;BME280;11799;47.740;-3.390;2022-11-20T09:11:07;101407.72;;;9.91;86.65
23261;BME280;11799;47.740;-3.390;2022-11-20T09:13:34;101412.88;;;9.92;86.38
23261;BME280;11799;47.740;-3.390;2022-11-20T09:16:02;101416.38;;;9.93;86.19
23261;BME280;11799;47.740;-3.390;2022-11-20T09:18:28;101422.50;;;9.93;85.58
23261;BME280;11799;47.740;-3.390;2022-11-20T09:21:00;101424.09;;;9.96;85.55
23261;BME280;11799;47.740;-3.390;2022-11-20T09:23:27;101430.94;;;9.99;85.25
23261;BME280;11799;47.740;-3.390;2022-11-20T09:25:53;101428.97;;;10.02;85.01
23261;BME280;11799;47.740;-3.390;2022-11-20T09:28:21;101432.91;;;10.09;85.85
23261;BME280;11799;47.740;-3.390;2022-11-20T09:30:46;101429.00;;;10.15;85.96
23261;BME280;11799;47.740;-3.390;2022-11-20T09:33:12;101432.28;;;10.18;85.65
23261;BME280;11799;47.740;-3.390;2022-11-20T09:35:38;101434.94;;;10.18;85.00
23261;BME280;11799;47.740;-3.390;2022-11-20T09:38:07;101425.78;;;10.24;85.07
23261;BME280;11799;47.740;-3.390;2022-11-20T09:40:34;101441.44;;;10.27;84.97
23261;BME280;11799;47.740;-3.390;2022-11-20T09:56:01;101449.47;;;10.38;83.31
23261;BME280;11799;47.740;-3.390;2022-11-20T09:58:32;101440.47;;;10.41;84.37
23261;BME280;11799;47.740;-3.390;2022-11-20T10:01:07;101437.72;;;10.42;84.27
23261;BME280;11799;47.740;-3.390;2022-11-20T10:03:44;101447.25;;;10.45;84.69
23261;BME280;11799;47.740;-3.390;2022-11-20T10:06:16;101440.91;;;10.47;84.34
23261;BME280;11799;47.740;-3.390;2022-11-20T10:08:51;101437.97;;;10.52;84.32
23261;BME280;11799;47.740;-3.390;2022-11-20T10:16:52;101438.09;;;10.63;83.80
23261;BME280;11799;47.740;-3.390;2022-11-20T10:25:16;101434.59;;;10.75;83.80
23261;BME280;11799;47.740;-3.390;2022-11-20T10:28:09;101439.56;;;10.80;84.81
23261;BME280;11799;47.740;-3.390;2022-11-20T10:30:42;101445.19;;;10.88;84.23
23261;BME280;11799;47.740;-3.390;2022-11-20T10:33:19;101446.56;;;10.94;83.96
23261;BME280;11799;47.740;-3.390;2022-11-20T10:36:19;101448.84;;;10.98;84.13
23261;BME280;11799;47.740;-3.390;2022-11-20T10:38:56;101450.22;;;11.04;84.04
23261;BME280;11799;47.740;-3.390;2022-11-20T10:41:27;101449.16;;;11.06;83.59
23261;BME280;11799;47.740;-3.390;2022-11-20T10:47:04;101456.34;;;11.17;83.71
23261;BME280;11799;47.740;-3.390;2022-11-20T10:49:32;101462.25;;;11.20;83.59
23261;BME280;11799;47.740;-3.390;2022-11-20T10:55:15;101462.47;;;11.30;82.51
23261;BME280;11799;47.740;-3.390;2022-11-20T10:58:04;101465.75;;;11.34;83.25
23261;BME280;11799;47.740;-3.390;2022-11-20T11:00:35;101463.63;;;11.39;82.32
23261;BME280;11799;47.740;-3.390;2022-11-20T11:03:00;101457.16;;;11.43;81.59
23261;BME280;11799;47.740;-3.390;2022-11-20T11:05:37;101449.41;;;11.52;82.81
23261;BME280;11799;47.740;-3.390;2022-11-20T11:08:14;101460.16;;;11.62;81.99
23261;BME280;11799;47.740;-3.390;2022-11-20T11:13:27;101460.88;;;11.77;80.56
23261;BME280;11799;47.740;-3.390;2022-11-20T11:15:53;101455.03;;;11.84;80.96
23261;BME280;11799;47.740;-3.390;2022-11-20T11:18:29;101453.63;;;11.92;80.84
23261;BME280;11799;47.740;-3.390;2022-11-20T11:20:56;101446.09;;;11.98;79.54
23261;BME280;11799;47.740;-3.390;2022-11-20T11:23:32;101443.09;;;12.03;79.63
23261;BME280;11799;47.740;-3.390;2022-11-20T11:26:00;101444.78;;;12.04;79.64
23261;BME280;11799;47.740;-3.390;2022-11-20T11:28:27;101442.53;;;12.10;80.27
23261;BME280;11799;47.740;-3.390;2022-11-20T11:30:53;101431.56;;;12.15;78.47
23261;BME280;11799;47.740;-3.390;2022-11-20T11:33:30;101436.41;;;12.21;78.66
23261;BME280;11799;47.740;-3.390;2022-11-20T11:36:02;101433.66;;;12.22;77.40
23261;BME280;11799;47.740;-3.390;2022-11-20T11:38:40;101436.19;;;12.24;77.61
23261;BME280;11799;47.740;-3.390;2022-11-20T11:41:08;101432.22;;;12.30;77.56
23261;BME280;11799;47.740;-3.390;2022-11-20T11:43:36;101437.41;;;12.31;75.52
23261;BME280;11799;47.740;-3.390;2022-11-20T11:49:13;101431.53;;;12.39;75.53
23261;BME280;11799;47.740;-3.390;2022-11-20T11:54:43;101439.63;;;12.48;76.09
23261;BME280;11799;47.740;-3.390;2022-11-20T12:05:20;101439.41;;;12.51;75.44
23261;BME280;11799;47.740;-3.390;2022-11-20T12:07:59;101421.81;;;12.50;72.78
23261;BME280;11799;47.740;-3.390;2022-11-20T12:10:41;101429.03;;;12.48;75.04
23261;BME280;11799;47.740;-3.390;2022-11-20T12:15:56;101400.97;;;12.46;73.71
23261;BME280;11799;47.740;-3.390;2022-11-20T12:18:22;101390.28;;;12.47;75.41
23261;BME280;11799;47.740;-3.390;2022-11-20T12:21:03;101394.00;;;12.45;74.17
23261;BME280;11799;47.740;-3.390;2022-11-20T12:26:08;101395.69;;;12.46;74.53
23261;BME280;11799;47.740;-3.390;2022-11-20T12:29:02;101389.53;;;12.45;74.27
23261;BME280;11799;47.740;-3.390;2022-11-20T12:37:33;101401.72;;;12.48;75.80
23261;BME280;11799;47.740;-3.390;2022-11-20T12:43:00;101408.56;;;12.50;73.62
23261;BME280;11799;47.740;-3.390;2022-11-20T12:57:24;101406.41;;;12.55;72.33
23261;BME280;11799;47.740;-3.390;2022-11-20T13:05:24;101414.88;;;12.61;73.28
23261;BME280;11799;47.740;-3.390;2022-11-20T13:07:53;101421.84;;;12.62;73.16
23261;BME280;11799;47.740;-3.390;2022-11-20T13:10:45;101413.91;;;12.62;71.20
23261;BME280;11799;47.740;-3.390;2022-11-20T13:16:01;101423.44;;;12.64;71.91
23261;BME280;11799;47.740;-3.390;2022-11-20T13:18:28;101424.25;;;12.65;71.64
23261;BME280;11799;47.740;-3.390;2022-11-20T13:20:55;101423.53;;;12.63;71.65
23261;BME280;11799;47.740;-3.390;2022-11-20T13:23:27;101419.94;;;12.64;71.69
23261;BME280;11799;47.740;-3.390;2022-11-20T13:26:13;101401.38;;;12.64;71.75
23261;BME280;11799;47.740;-3.390;2022-11-20T13:28:40;101409.22;;;12.65;70.13
23261;BME280;11799;47.740;-3.390;2022-11-20T13:31:28;101419.19;;;12.62;71.40
23261;BME280;11799;47.740;-3.390;2022-11-20T13:33:55;101415.81;;;12.60;69.81
23261;BME280;11799;47.740;-3.390;2022-11-20T13:36:27;101416.91;;;12.57;70.11
23261;BME280;11799;47.740;-3.390;2022-11-20T13:38:54;101418.72;;;12.56;70.90
23261;BME280;11799;47.740;-3.390;2022-11-20T13:41:34;101413.66;;;12.53;70.53
23261;BME280;11799;47.740;-3.390;2022-11-20T13:46:45;101418.09;;;12.53;72.86
23261;BME280;11799;47.740;-3.390;2022-11-20T13:49:42;101414.59;;;12.52;71.86
23261;BME280;11799;47.740;-3.390;2022-11-20T13:55:21;101427.13;;;12.50;71.57
23261;BME280;11799;47.740;-3.390;2022-11-20T14:00:43;101421.22;;;12.47;71.93
23261;BME280;11799;47.740;-3.390;2022-11-20T14:03:18;101429.16;;;12.47;70.74
23261;BME280;11799;47.740;-3.390;2022-11-20T14:05:56;101428.44;;;12.45;71.98
23261;BME280;11799;47.740;-3.390;2022-11-20T14:08:47;101433.00;;;12.43;72.30
23261;BME280;11799;47.740;-3.390;2022-11-20T14:11:24;101442.63;;;12.44;71.78
23261;BME280;11799;47.740;-3.390;2022-11-20T14:16:20;101439.25;;;12.42;70.90
23261;BME280;11799;47.740;-3.390;2022-11-20T14:18:46;101434.06;;;12.40;72.29
23261;BME280;11799;47.740;-3.390;2022-11-20T14:21:21;101434.19;;;12.39;71.38
23261;BME280;11799;47.740;-3.390;2022-11-20T14:23:47;101436.09;;;12.37;70.57
23261;BME280;11799;47.740;-3.390;2022-11-20T14:26:16;101428.28;;;12.35;71.72
23261;BME280;11799;47.740;-3.390;2022-11-20T14:28:49;101431.16;;;12.32;71.14
23261;BME280;11799;47.740;-3.390;2022-11-20T14:31:23;101433.81;;;12.32;72.02
23261;BME280;11799;47.740;-3.390;2022-11-20T14:33:50;101427.91;;;12.29;69.73